Lindong, China
Current Conditions -  °F | °C
As of 6:30 AM on Sunday 26 Oct 2014 (Local Time) from ZYTX Reporting Station
Scattered Clouds Scattered Clouds  
Wind Chill: 38°   Ceiling: Unl
Heat Index: 43°   Visibility: 6mi
Dew Point:   Wind: 9mph
Humidity: 25%   Direction: 360°N
Pressure: 30.24"   Gusts: NA
Location:  43.98°N, 119.4°E
Report Text: ZYTX 252230Z 36004MPS 9999 SCT040 06/M13 Q1024 NOSIG
Loading
Personal Weather Stations






























Interactive Weather Map
Tropical Storm Tracking
New forecast layout! Learn more

10-Day Weather Forecast

Advertisements
Track Severe Weather on mobile